Millwood, Virginia
Current Conditions -  °F | °C
As of 9:55 AM on Wednesday 26 Nov 2014 (Local Time) from KOKV Reporting Station
Moderate Snow Moderate Snow  
Wind Chill: 34°   Ceiling: 600
Heat Index: 34°   Visibility: 0.5mi
Dew Point: 32°   Wind: 0mph
Humidity: 93%   Direction: NA
Pressure: 30.08"   Gusts: NA
Location:  39.07°N, 78.04°W
Report Text: KOKV 261455Z AUTO 00000KT 1/2SM SN OVC006 01/00 A3008 RMK AO2
Loading
Personal Weather Stations






























Interactive Weather Map New forecast layout! Learn more

10-Day Weather Forecast

Advertisements
Track Severe Weather on mobile